Medicine Hat Airport
CYXH : now visible

Airfield :











YOU CAN JOIN US ON...

 
LOGIN :

Register | Disclaimer

   EN    FR    IT 

 









Legend :    VFR   Marginal VFR   IFR   Intensive IFR   Very Intensive IFR
Visi :
Ceiling :
>= 8 km
>= 3000ft
5 to 8 km
1000 to 3000 ft
1500m to 5 km
500 to 1000 ft
800 to 1500m
200 to 500 ft
< 800m
< 200 ft
Symbols :   Thunderstorms  Fog  Heavy snow  Heavy precipitations  Wind > 20 kt






- Airport Elevation : 2352 ft
- IATA code : YXH


CYXH - Medicine Hat

CURRENT METAR :
  • 170400Z AUTO 33006KT 270V350 9SM BKN060 M06/M09 A2988 RMK SLP161

EXPIRED METARs :
  • 170300Z VRB03KT 15SM FEW080 M06/M08 A2985 RMK AC2 LAST STFD OBS/NEXT 171300Z SLP151
  • 170200Z 21006KT 15SM FEW044 OVC085 M05/M08 A2985 RMK SC1AC7 SLP146

TAF TAF CYXH
Valid from the 17 at 00:00 until the 17 at 12:00 UTC


162338Z 1700/1712 22006KT P6SM SCT080 BKN090
TEMPO 1700/1710 5SM -SN BR BKN050 OVC080
BECMG 1704/1706 VRB03KT
FM171000 VRB03KT 2SM BR OVC008
TEMPO 1710/1712 1/2SM FZFG VV002 RMK NXT FCST BY 170600Z



MET'MAP, your aeronautical weather chart ! - Copyright ORBIFLY December 2007 - Disclaimer

ORBIFLY MET'MAP TEAM :

Programming & Development : Alexandra Zaïnal
Concept & original design : Baudouin d'Aumeries
Assistance for programming : Marc-Olivier Méhu
Technical & hardware support : Manuel Goepfert

Contact : metmap@orbifly.com




SOURCES & CREDITS :

   NOAA       Earth
Advisory